createdAt,value
2022-09-16T00:00:10.875Z,66.19
2022-09-16T00:01:10.956Z,66.19
2022-09-16T00:02:10.934Z,66.19
2022-09-16T00:03:10.874Z,66.19
2022-09-16T00:04:10.832Z,66.19
2022-09-16T00:05:10.822Z,66.19
2022-09-16T00:06:10.810Z,66.19
2022-09-16T00:07:10.830Z,66.19
2022-09-16T00:08:10.787Z,66.19
2022-09-16T00:09:10.780Z,66.19
2022-09-16T00:10:10.765Z,66.19
2022-09-16T00:11:10.756Z,66.19
2022-09-16T00:12:10.772Z,66.19
2022-09-16T00:13:10.735Z,66.19
2022-09-16T00:14:10.721Z,66.19
2022-09-16T00:15:10.713Z,66.19
2022-09-16T00:16:10.809Z,66.09
2022-09-16T00:17:10.721Z,66.09
2022-09-16T00:18:10.679Z,66.19
2022-09-16T00:19:10.695Z,66.19
2022-09-16T00:20:17.998Z,66.19
2022-09-16T00:21:10.644Z,66.19
2022-09-16T00:22:10.667Z,66.19
2022-09-16T00:23:10.623Z,66.19
2022-09-16T00:24:10.646Z,66.19
2022-09-16T00:25:10.602Z,66.19
2022-09-16T00:26:10.595Z,66.19
2022-09-16T00:27:10.580Z,66.19
2022-09-16T00:28:10.569Z,66.19
2022-09-16T00:29:10.593Z,66.19
2022-09-16T00:30:10.552Z,66.19
2022-09-16T00:31:10.584Z,66.19
2022-09-16T00:32:10.526Z,66.19
2022-09-16T00:33:10.514Z,66.19
2022-09-16T00:34:10.538Z,66.09
2022-09-16T00:35:10.523Z,66.09
2022-09-16T00:36:10.483Z,66.09
2022-09-16T00:37:10.472Z,66.09
2022-09-16T00:38:10.461Z,66.09
2022-09-16T00:39:10.484Z,66.09
2022-09-16T00:40:10.490Z,66.09
2022-09-16T00:41:10.458Z,66.09
2022-09-16T00:42:10.418Z,66.09
2022-09-16T00:43:10.406Z,66.09
2022-09-16T00:44:10.394Z,66.09
2022-09-16T00:45:10.386Z,66.09
2022-09-16T00:46:10.405Z,66.09
2022-09-16T00:47:10.425Z,66.09
2022-09-16T00:48:10.351Z,66.09
2022-09-16T00:49:10.343Z,66.09
2022-09-16T00:50:10.331Z,66.09
2022-09-16T00:51:10.392Z,66.09
2022-09-16T00:52:10.308Z,66.09
2022-09-16T00:53:10.299Z,66.19
2022-09-16T00:54:10.287Z,66.19
2022-09-16T00:55:10.280Z,66.19
2022-09-16T00:56:10.295Z,66.19
2022-09-16T00:57:10.254Z,66.19
2022-09-16T00:58:10.241Z,66.19
2022-09-16T00:59:10.231Z,66.19
2022-09-16T01:00:10.222Z,66.09
2022-09-16T01:01:10.280Z,66.09
2022-09-16T01:02:10.257Z,66.09
2022-09-16T01:03:10.187Z,66.09
2022-09-16T01:04:10.177Z,66.09
2022-09-16T01:05:10.165Z,66.09
2022-09-16T01:06:10.190Z,66.09
2022-09-16T01:07:10.171Z,66.09
2022-09-16T01:08:10.136Z,66.09
2022-09-16T01:09:10.121Z,66.09
2022-09-16T01:10:10.113Z,66.09
2022-09-16T01:11:10.148Z,66.09
2022-09-16T01:12:10.122Z,66.09
2022-09-16T01:13:10.077Z,66.19
2022-09-16T01:14:10.099Z,66.09
2022-09-16T01:15:10.056Z,66.09
2022-09-16T01:16:10.128Z,66.09
2022-09-16T01:17:10.035Z,66.09
2022-09-16T01:18:10.024Z,66.09
2022-09-16T01:19:10.047Z,66.09
2022-09-16T01:20:10.023Z,66.09
2022-09-16T01:21:09.993Z,66.09
2022-09-16T01:22:10.014Z,66.09
2022-09-16T01:23:10.001Z,66.09
2022-09-16T01:24:09.960Z,66.09
2022-09-16T01:25:09.946Z,66.09
2022-09-16T01:26:09.937Z,66.09
2022-09-16T01:27:09.958Z,66.09
2022-09-16T01:28:09.926Z,66.09
2022-09-16T01:29:09.903Z,66.09
2022-09-16T01:30:09.893Z,66.09
2022-09-16T01:31:09.968Z,66.09
2022-09-16T01:32:09.873Z,66.09
2022-09-16T01:33:09.865Z,66.09
2022-09-16T01:34:09.852Z,66.09
2022-09-16T01:35:09.842Z,66.09
2022-09-16T01:36:09.866Z,66.09
2022-09-16T01:37:09.861Z,66.09
2022-09-16T01:38:09.811Z,66.09
2022-09-16T01:39:09.822Z,66.09
2022-09-16T01:40:09.879Z,66.09
2022-09-16T01:41:09.774Z,66.09
2022-09-16T01:42:09.795Z,66.09
2022-09-16T01:43:09.782Z,66.09
2022-09-16T01:44:09.741Z,66.09
2022-09-16T01:45:09.732Z,66.09
2022-09-16T01:46:09.792Z,66.09
2022-09-16T01:47:09.706Z,65.99
2022-09-16T01:48:09.738Z,65.99
2022-09-16T01:49:09.684Z,65.99
2022-09-16T01:50:09.674Z,65.99
2022-09-16T01:51:09.663Z,65.99
2022-09-16T01:52:09.652Z,65.99
2022-09-16T01:53:09.641Z,65.99
2022-09-16T01:54:09.665Z,65.99
2022-09-16T01:55:09.643Z,65.99
2022-09-16T01:56:09.609Z,65.99
2022-09-16T01:57:09.597Z,65.99
2022-09-16T01:58:09.621Z,65.99
2022-09-16T01:59:09.578Z,65.99
2022-09-16T02:00:09.565Z,65.99
2022-09-16T02:01:09.554Z,65.99
2022-09-16T02:02:09.629Z,65.99
2022-09-16T02:03:09.564Z,65.99
2022-09-16T02:04:09.558Z,65.99
2022-09-16T02:05:09.512Z,65.99
2022-09-16T02:06:09.502Z,65.99
2022-09-16T02:07:09.488Z,65.99
2022-09-16T02:08:09.478Z,65.99
2022-09-16T02:09:09.500Z,65.99
2022-09-16T02:10:09.462Z,65.99
2022-09-16T02:11:09.469Z,65.99
2022-09-16T02:12:09.436Z,65.99
2022-09-16T02:13:09.425Z,65.99
2022-09-16T02:14:09.444Z,65.99
2022-09-16T02:15:09.400Z,65.99
2022-09-16T02:16:09.454Z,65.99
2022-09-16T02:17:09.380Z,65.99
2022-09-16T02:18:09.377Z,65.99
2022-09-16T02:19:09.397Z,65.99
2022-09-16T02:20:09.349Z,65.99
2022-09-16T02:21:09.334Z,65.99
2022-09-16T02:22:09.324Z,65.99
2022-09-16T02:23:09.315Z,65.99
2022-09-16T02:24:09.304Z,65.99
2022-09-16T02:25:09.327Z,65.99
2022-09-16T02:26:09.284Z,65.99
2022-09-16T02:27:09.292Z,65.99
2022-09-16T02:28:09.261Z,65.99
2022-09-16T02:29:09.247Z,65.99
2022-09-16T02:30:09.264Z,65.99
2022-09-16T02:31:09.289Z,65.99
2022-09-16T02:32:09.215Z,65.99
2022-09-16T02:33:09.228Z,65.99
2022-09-16T02:34:09.197Z,65.89
2022-09-16T02:35:09.181Z,65.89
2022-09-16T02:36:09.171Z,65.89
2022-09-16T02:37:09.159Z,65.89
2022-09-16T02:38:09.177Z,65.89
2022-09-16T02:39:09.138Z,65.89
2022-09-16T02:40:09.216Z,65.89
2022-09-16T02:41:09.117Z,65.89
2022-09-16T02:42:09.107Z,65.89
2022-09-16T02:43:09.164Z,65.89
2022-09-16T02:44:09.086Z,65.89
2022-09-16T02:45:09.073Z,65.89
2022-09-16T02:46:09.198Z,65.89
2022-09-16T02:47:09.051Z,65.89
2022-09-16T02:48:09.044Z,65.89
2022-09-16T02:49:09.054Z,65.89
2022-09-16T02:50:09.023Z,65.89
2022-09-16T02:51:09.007Z,65.89
2022-09-16T02:52:08.996Z,65.89
2022-09-16T02:53:08.985Z,65.89
2022-09-16T02:54:09.000Z,65.89
2022-09-16T02:55:08.963Z,65.89
2022-09-16T02:56:08.955Z,65.89
2022-09-16T02:57:08.942Z,65.89
2022-09-16T02:58:08.933Z,65.89
2022-09-16T02:59:08.968Z,65.89
2022-09-16T03:00:08.911Z,65.89
2022-09-16T03:01:08.898Z,65.89
2022-09-16T03:02:08.957Z,65.89
2022-09-16T03:03:08.970Z,65.89
2022-09-16T03:04:08.892Z,65.89
2022-09-16T03:05:08.854Z,65.89
2022-09-16T03:06:08.848Z,65.89
2022-09-16T03:07:08.832Z,65.89
2022-09-16T03:08:08.826Z,65.89
2022-09-16T03:09:08.836Z,65.89
2022-09-16T03:10:08.800Z,65.89
2022-09-16T03:11:08.788Z,65.89
2022-09-16T03:12:08.778Z,65.89
2022-09-16T03:13:08.766Z,65.89
2022-09-16T03:14:08.785Z,65.89
2022-09-16T03:15:08.796Z,65.89
2022-09-16T03:16:08.788Z,65.89
2022-09-16T03:17:08.724Z,65.89
2022-09-16T03:18:08.718Z,65.89
2022-09-16T03:19:08.703Z,65.89
2022-09-16T03:20:08.719Z,65.89
2022-09-16T03:21:08.679Z,65.89
2022-09-16T03:22:08.671Z,65.89
2022-09-16T03:23:08.657Z,65.89
2022-09-16T03:24:08.647Z,65.89
2022-09-16T03:25:08.661Z,65.89
2022-09-16T03:26:08.627Z,65.89
2022-09-16T03:27:08.614Z,65.89
2022-09-16T03:28:08.606Z,65.89
2022-09-16T03:29:08.591Z,65.89
2022-09-16T03:30:08.608Z,65.89
2022-09-16T03:31:08.683Z,65.89
2022-09-16T03:32:08.561Z,65.89
2022-09-16T03:33:08.547Z,65.89
2022-09-16T03:34:08.540Z,65.89
2022-09-16T03:35:08.527Z,65.89
2022-09-16T03:36:08.543Z,65.89
2022-09-16T03:37:08.531Z,65.89
2022-09-16T03:38:08.496Z,65.89
2022-09-16T03:39:08.484Z,65.89
2022-09-16T03:40:08.599Z,65.89
2022-09-16T03:41:08.460Z,65.89
2022-09-16T03:42:08.483Z,65.89
2022-09-16T03:43:08.439Z,65.89
2022-09-16T03:44:08.432Z,65.92
2022-09-16T03:45:08.417Z,65.89
2022-09-16T03:46:08.442Z,65.89
2022-09-16T03:47:08.469Z,65.89
2022-09-16T03:48:08.386Z,65.92
2022-09-16T03:49:08.373Z,65.89
2022-09-16T03:50:08.367Z,65.89
2022-09-16T03:51:08.352Z,65.92
2022-09-16T03:52:08.349Z,65.89
2022-09-16T03:53:08.358Z,65.92
2022-09-16T03:54:08.321Z,65.89
2022-09-16T03:55:08.307Z,65.89
2022-09-16T03:56:08.297Z,65.89
2022-09-16T03:57:08.288Z,65.92
2022-09-16T03:58:08.304Z,65.89
2022-09-16T03:59:08.264Z,65.89
2022-09-16T04:00:08.256Z,65.89
2022-09-16T04:01:08.306Z,65.92
2022-09-16T04:02:08.232Z,65.89
2022-09-16T04:03:08.339Z,65.89
2022-09-16T04:04:08.210Z,65.89
2022-09-16T04:05:08.204Z,65.92
2022-09-16T04:06:08.188Z,65.89
2022-09-16T04:07:08.179Z,65.89
2022-09-16T04:08:08.192Z,65.89
2022-09-16T04:09:08.154Z,65.92
2022-09-16T04:10:08.147Z,65.92
2022-09-16T04:11:08.134Z,65.92
2022-09-16T04:12:08.127Z,65.89
2022-09-16T04:13:08.136Z,65.92
2022-09-16T04:14:08.103Z,65.92
2022-09-16T04:15:08.089Z,65.89
2022-09-16T04:16:08.153Z,65.83
2022-09-16T04:17:08.067Z,65.83
2022-09-16T04:18:08.084Z,65.83
2022-09-16T04:19:08.068Z,65.83
2022-09-16T04:20:08.038Z,65.92
2022-09-16T04:21:08.027Z,65.92
2022-09-16T04:22:08.014Z,65.79
2022-09-16T04:23:08.027Z,65.79
2022-09-16T04:24:12.199Z,65.83
2022-09-16T04:25:08.981Z,65.83
2022-09-16T04:26:07.972Z,65.83
2022-09-16T04:27:07.961Z,65.83
2022-09-16T04:28:07.977Z,65.83
2022-09-16T04:29:07.936Z,65.83
2022-09-16T04:30:07.929Z,65.83
2022-09-16T04:31:07.986Z,65.83
2022-09-16T04:32:07.906Z,65.83
2022-09-16T04:33:07.918Z,65.83
2022-09-16T04:34:07.884Z,65.83
2022-09-16T04:35:07.914Z,65.83
2022-09-16T04:36:07.862Z,65.83
2022-09-16T04:37:07.848Z,65.83
2022-09-16T04:38:07.867Z,65.83
2022-09-16T04:39:07.827Z,65.83
2022-09-16T04:40:07.863Z,65.83
2022-09-16T04:41:07.807Z,65.83
2022-09-16T04:42:07.796Z,65.83
2022-09-16T04:43:07.813Z,65.83
2022-09-16T04:44:07.776Z,65.83
2022-09-16T04:45:07.762Z,65.83
2022-09-16T04:46:07.874Z,65.83
2022-09-16T04:47:07.739Z,65.83
2022-09-16T04:48:07.756Z,65.83
2022-09-16T04:49:07.745Z,65.83
2022-09-16T04:50:07.710Z,65.83
2022-09-16T04:51:07.720Z,65.83
2022-09-16T04:52:07.687Z,65.83
2022-09-16T04:53:07.675Z,65.83
2022-09-16T04:54:07.693Z,65.83
2022-09-16T04:55:07.652Z,65.83
2022-09-16T04:56:07.645Z,65.83
2022-09-16T04:57:07.633Z,65.72
2022-09-16T04:58:07.619Z,65.72
2022-09-16T04:59:07.634Z,65.72
2022-09-16T05:00:07.598Z,65.72
2022-09-16T05:01:07.715Z,65.72
2022-09-16T05:02:07.580Z,65.72
2022-09-16T05:03:07.602Z,65.72
2022-09-16T05:04:07.606Z,65.72
2022-09-16T05:05:07.543Z,65.72
2022-09-16T05:06:07.544Z,65.72
2022-09-16T05:07:07.545Z,65.72
2022-09-16T05:08:07.512Z,65.72
2022-09-16T05:09:07.528Z,65.72
2022-09-16T05:10:07.490Z,65.72
2022-09-16T05:11:07.477Z,65.72
2022-09-16T05:12:07.472Z,65.72
2022-09-16T05:13:07.457Z,65.72
2022-09-16T05:14:07.472Z,65.72
2022-09-16T05:15:07.433Z,65.72
2022-09-16T05:16:07.532Z,65.72
2022-09-16T05:17:07.418Z,65.72
2022-09-16T05:18:07.400Z,65.72
2022-09-16T05:19:07.421Z,65.62
2022-09-16T05:20:07.379Z,65.72
2022-09-16T05:21:07.369Z,65.72
2022-09-16T05:22:07.357Z,65.72
2022-09-16T05:23:07.464Z,65.72
2022-09-16T05:24:07.360Z,65.72
2022-09-16T05:25:07.329Z,65.72
2022-09-16T05:26:07.313Z,65.72
2022-09-16T05:27:07.305Z,65.72
2022-09-16T05:28:07.292Z,65.72
2022-09-16T05:29:07.327Z,65.72
2022-09-16T05:30:07.270Z,65.72
2022-09-16T05:31:07.333Z,65.72
2022-09-16T05:32:07.249Z,65.62
2022-09-16T05:33:07.238Z,65.62
2022-09-16T05:34:07.226Z,65.62
2022-09-16T05:35:07.240Z,65.62
2022-09-16T05:36:07.204Z,65.62
2022-09-16T05:37:07.196Z,65.62
2022-09-16T05:38:07.182Z,65.62
2022-09-16T05:39:24.520Z,65.62
2022-09-16T05:40:08.263Z,65.62
2022-09-16T05:41:07.156Z,65.62
2022-09-16T05:42:07.170Z,65.62
2022-09-16T05:43:07.131Z,65.62
2022-09-16T05:44:07.117Z,65.62
2022-09-16T05:45:07.113Z,65.62
2022-09-16T05:46:07.167Z,65.62
2022-09-16T05:47:07.119Z,65.62
2022-09-16T05:48:07.074Z,65.62
2022-09-16T05:49:07.068Z,65.62
2022-09-16T05:50:07.052Z,65.62
2022-09-16T05:51:07.042Z,65.62
2022-09-16T05:52:07.066Z,65.62
2022-09-16T05:53:07.019Z,65.62
2022-09-16T05:54:07.046Z,65.62
2022-09-16T05:55:07.118Z,65.62
2022-09-16T05:56:06.985Z,65.62
2022-09-16T05:57:07.467Z,65.62
2022-09-16T05:58:06.963Z,65.62
2022-09-16T05:59:06.955Z,65.62
2022-09-16T06:00:06.978Z,65.62
2022-09-16T06:01:06.990Z,65.62
2022-09-16T06:02:06.995Z,65.62
2022-09-16T06:03:06.912Z,65.62
2022-09-16T06:04:06.899Z,65.62
2022-09-16T06:05:06.887Z,65.62
2022-09-16T06:06:06.875Z,65.62
2022-09-16T06:07:06.914Z,65.62
2022-09-16T06:08:06.854Z,65.62
2022-09-16T06:09:06.848Z,65.62
2022-09-16T06:10:06.846Z,65.62
2022-09-16T06:11:06.950Z,65.62
2022-09-16T06:12:06.849Z,65.62
2022-09-16T06:13:06.803Z,65.62
2022-09-16T06:14:06.790Z,65.62
2022-09-16T06:15:06.781Z,65.52
2022-09-16T06:16:06.841Z,65.62
2022-09-16T06:17:06.791Z,65.52
2022-09-16T06:18:06.765Z,65.52
2022-09-16T06:19:06.734Z,65.62
2022-09-16T06:20:06.722Z,65.52
2022-09-16T06:21:06.712Z,65.52
2022-09-16T06:22:06.736Z,65.52
2022-09-16T06:23:06.694Z,65.52
2022-09-16T06:24:06.682Z,65.52
2022-09-16T06:25:06.676Z,65.52
2022-09-16T06:26:06.662Z,65.52
2022-09-16T06:27:06.808Z,65.52
2022-09-16T06:28:06.637Z,65.52
2022-09-16T06:29:06.629Z,65.52
2022-09-16T06:30:06.616Z,65.52
2022-09-16T06:31:06.695Z,65.52
2022-09-16T06:32:06.625Z,65.52
2022-09-16T06:33:06.614Z,65.52
2022-09-16T06:34:06.568Z,65.52
2022-09-16T06:35:06.561Z,65.52
2022-09-16T06:36:06.546Z,65.33
2022-09-16T06:37:06.538Z,65.33
2022-09-16T06:38:06.560Z,65.22
2022-09-16T06:39:06.518Z,65.22
2022-09-16T06:40:06.590Z,65.22
2022-09-16T06:41:06.497Z,65.22
2022-09-16T06:42:06.482Z,65.22
2022-09-16T06:43:06.597Z,65.22
2022-09-16T06:44:06.465Z,65.33
2022-09-16T06:45:06.482Z,65.33
2022-09-16T06:46:06.501Z,65.33
2022-09-16T06:47:06.432Z,65.33
2022-09-16T06:48:06.420Z,65.42
2022-09-16T06:49:06.905Z,65.42
2022-09-16T06:50:06.429Z,65.42
2022-09-16T06:51:06.383Z,65.42
2022-09-16T06:52:06.405Z,65.42
2022-09-16T06:53:06.363Z,65.42
2022-09-16T06:54:06.376Z,65.52
2022-09-16T06:55:06.343Z,65.52
2022-09-16T06:56:06.334Z,65.52
2022-09-16T06:57:11.411Z,65.42
2022-09-16T06:58:07.308Z,65.33
2022-09-16T06:59:06.419Z,65.42
2022-09-16T07:00:06.289Z,65.42
2022-09-16T07:01:06.323Z,65.42
2022-09-16T07:02:06.357Z,65.42
2022-09-16T07:03:06.255Z,65.52
2022-09-16T07:04:06.243Z,65.52
2022-09-16T07:05:06.231Z,65.52
2022-09-16T07:06:06.224Z,65.52
2022-09-16T07:07:09.769Z,65.52
2022-09-16T07:08:06.201Z,65.42
2022-09-16T07:09:06.187Z,65.42
2022-09-16T07:10:06.212Z,65.52
2022-09-16T07:11:06.166Z,65.52
2022-09-16T07:12:06.159Z,65.52
2022-09-16T07:13:06.170Z,65.52
2022-09-16T07:14:06.138Z,65.52
2022-09-16T07:15:06.278Z,65.52
2022-09-16T07:16:14.268Z,65.62
2022-09-16T07:17:07.167Z,65.62
2022-09-16T07:18:06.093Z,65.62
2022-09-16T07:19:06.078Z,65.42
2022-09-16T07:20:06.105Z,65.42
2022-09-16T07:21:06.056Z,65.33
2022-09-16T07:22:06.078Z,65.33
2022-09-16T07:23:06.035Z,65.33
2022-09-16T07:24:06.026Z,65.33
2022-09-16T07:25:06.014Z,65.33
2022-09-16T07:26:06.005Z,65.42
2022-09-16T07:27:06.026Z,65.42
2022-09-16T07:28:05.984Z,65.42
2022-09-16T07:29:05.971Z,65.42
2022-09-16T07:30:09.143Z,65.42
2022-09-16T07:31:06.140Z,65.52
2022-09-16T07:32:05.948Z,65.52
2022-09-16T07:33:05.927Z,65.52
2022-09-16T07:34:05.918Z,65.83
2022-09-16T07:35:05.936Z,65.72
2022-09-16T07:36:05.895Z,65.62
2022-09-16T07:37:05.915Z,65.62
2022-09-16T07:38:05.874Z,65.62
2022-09-16T07:39:05.867Z,65.62
2022-09-16T07:40:05.938Z,65.72
2022-09-16T07:41:05.841Z,65.72
2022-09-16T07:42:06.401Z,65.72
2022-09-16T07:43:05.817Z,65.72
2022-09-16T07:44:05.809Z,65.72
2022-09-16T07:45:05.796Z,65.72
2022-09-16T07:46:05.890Z,65.72
2022-09-16T07:47:05.926Z,65.72
2022-09-16T07:48:05.765Z,65.52
2022-09-16T07:49:05.786Z,65.52
2022-09-16T07:50:05.741Z,65.42
2022-09-16T07:51:05.732Z,65.42
2022-09-16T07:52:05.719Z,65.42
2022-09-16T07:53:05.707Z,65.42
2022-09-16T07:54:05.739Z,65.62
2022-09-16T07:55:05.687Z,65.52
2022-09-16T07:56:05.678Z,65.52
2022-09-16T07:57:05.669Z,65.52
2022-09-16T07:58:05.657Z,65.62
2022-09-16T07:59:05.642Z,65.52
2022-09-16T08:00:05.666Z,65.42
2022-09-16T08:01:05.722Z,65.42
2022-09-16T08:02:05.775Z,65.42
2022-09-16T08:03:05.841Z,65.42
2022-09-16T08:04:05.589Z,65.42
2022-09-16T08:05:05.578Z,65.42
2022-09-16T08:06:05.568Z,65.33
2022-09-16T08:07:05.589Z,65.33
2022-09-16T08:08:05.548Z,65.33
2022-09-16T08:09:15.548Z,65.33
2022-09-16T08:10:06.529Z,65.29
2022-09-16T08:11:05.511Z,65.33
2022-09-16T08:12:05.504Z,65.29
2022-09-16T08:13:05.502Z,65.29
2022-09-16T08:14:05.520Z,65.29
2022-09-16T08:15:05.552Z,65.62
2022-09-16T08:16:05.459Z,65.69
2022-09-16T08:17:05.445Z,65.79
2022-09-16T08:18:05.439Z,65.79
2022-09-16T08:19:05.544Z,65.79
2022-09-16T08:20:05.448Z,65.92
2022-09-16T08:21:05.401Z,65.89
2022-09-16T08:22:05.393Z,65.79
2022-09-16T08:23:05.379Z,65.69
2022-09-16T08:24:05.386Z,65.59
2022-09-16T08:25:05.425Z,65.49
2022-09-16T08:26:05.348Z,65.59
2022-09-16T08:27:05.370Z,66.09
2022-09-16T08:28:05.329Z,66.19
2022-09-16T08:29:08.942Z,65.99
2022-09-16T08:30:05.313Z,65.89
2022-09-16T08:31:05.293Z,65.89
2022-09-16T08:32:05.412Z,66.09
2022-09-16T08:33:05.277Z,66.19
2022-09-16T08:34:05.262Z,66.09
2022-09-16T08:35:05.373Z,65.99
2022-09-16T08:36:05.239Z,65.79
2022-09-16T08:37:05.263Z,65.79
2022-09-16T08:38:05.217Z,65.69
2022-09-16T08:39:05.206Z,65.59
2022-09-16T08:40:05.339Z,65.59
2022-09-16T08:41:05.187Z,65.59
2022-09-16T08:42:05.207Z,65.59
2022-09-16T08:43:05.161Z,65.49
2022-09-16T08:44:05.192Z,65.49
2022-09-16T08:45:05.141Z,65.49
2022-09-16T08:46:05.200Z,65.49
2022-09-16T08:47:05.118Z,65.49
2022-09-16T08:48:05.116Z,65.49
2022-09-16T08:49:05.197Z,65.49
2022-09-16T08:50:05.151Z,65.49
2022-09-16T08:51:05.211Z,65.59
2022-09-16T08:52:05.068Z,65.59
2022-09-16T08:53:05.068Z,65.69
2022-09-16T08:54:05.045Z,65.69
2022-09-16T08:55:05.066Z,65.59
2022-09-16T08:56:05.020Z,65.59
2022-09-16T08:57:05.011Z,65.69
2022-09-16T08:58:05.003Z,65.69
2022-09-16T08:59:04.988Z,65.69
2022-09-16T09:00:05.009Z,65.69
2022-09-16T09:01:05.105Z,65.69
2022-09-16T09:02:09.157Z,65.69
2022-09-16T09:03:04.943Z,65.69
2022-09-16T09:04:04.968Z,65.59
2022-09-16T09:05:04.921Z,65.59
2022-09-16T09:06:04.916Z,65.49
2022-09-16T09:07:05.035Z,65.59
2022-09-16T09:08:04.894Z,65.59
2022-09-16T09:09:04.910Z,65.59
2022-09-16T09:10:07.168Z,65.59
2022-09-16T09:11:05.855Z,65.59
2022-09-16T09:12:04.860Z,65.49
2022-09-16T09:13:04.899Z,65.49
2022-09-16T09:14:04.868Z,65.59
2022-09-16T09:15:04.814Z,65.59
2022-09-16T09:16:04.902Z,65.59
2022-09-16T09:17:04.793Z,65.49
2022-09-16T09:18:04.783Z,65.69
2022-09-16T09:19:04.769Z,65.79
2022-09-16T09:20:04.805Z,65.69
2022-09-16T09:21:04.748Z,65.69
2022-09-16T09:22:04.737Z,65.69
2022-09-16T09:23:04.860Z,65.69
2022-09-16T09:24:04.717Z,65.69
2022-09-16T09:25:04.704Z,65.79
2022-09-16T09:26:04.726Z,65.69
2022-09-16T09:27:04.682Z,65.79
2022-09-16T09:28:04.673Z,65.69
2022-09-16T09:29:04.662Z,65.69
2022-09-16T09:30:04.654Z,65.69
2022-09-16T09:31:08.753Z,65.59
2022-09-16T09:32:05.753Z,65.59
2022-09-16T09:33:04.670Z,65.69
2022-09-16T09:34:04.649Z,65.59
2022-09-16T09:35:04.599Z,65.59
2022-09-16T09:36:04.583Z,65.59
2022-09-16T09:37:04.611Z,65.59
2022-09-16T09:38:04.593Z,65.49
2022-09-16T09:39:04.690Z,65.49
2022-09-16T09:40:04.639Z,65.49
2022-09-16T09:41:04.530Z,65.49
2022-09-16T09:42:04.519Z,65.49
2022-09-16T09:43:04.543Z,65.49
2022-09-16T09:44:04.497Z,65.49
2022-09-16T09:45:04.567Z,65.49
2022-09-16T09:46:04.521Z,65.59
2022-09-16T09:47:04.499Z,65.69
2022-09-16T09:48:04.452Z,65.69
2022-09-16T09:49:04.444Z,65.69
2022-09-16T09:50:04.432Z,65.69
2022-09-16T09:51:04.422Z,65.59
2022-09-16T09:52:04.440Z,65.59
2022-09-16T09:53:04.399Z,65.59
2022-09-16T09:54:04.387Z,65.59
2022-09-16T09:55:04.509Z,65.59
2022-09-16T09:56:04.368Z,65.69
2022-09-16T09:57:04.389Z,65.59
2022-09-16T09:58:04.373Z,65.69
2022-09-16T09:59:04.345Z,65.79
2022-09-16T10:00:04.322Z,65.89
2022-09-16T10:01:04.385Z,65.89
2022-09-16T10:02:04.324Z,65.89
2022-09-16T10:03:04.321Z,65.89
2022-09-16T10:04:04.307Z,65.89
2022-09-16T10:05:04.269Z,65.79
2022-09-16T10:06:04.255Z,65.79
2022-09-16T10:07:04.247Z,65.79
2022-09-16T10:08:04.233Z,65.69
2022-09-16T10:09:04.258Z,65.69
2022-09-16T10:10:04.212Z,65.69
2022-09-16T10:11:04.373Z,65.69
2022-09-16T10:12:04.189Z,65.79
2022-09-16T10:13:04.181Z,65.89
2022-09-16T10:14:04.168Z,65.79
2022-09-16T10:15:04.158Z,65.79
2022-09-16T10:16:04.157Z,65.89
2022-09-16T10:17:04.171Z,65.79
2022-09-16T10:18:04.123Z,65.79
2022-09-16T10:19:04.117Z,65.79
2022-09-16T10:20:04.102Z,65.79
2022-09-16T10:21:04.092Z,65.79
2022-09-16T10:22:04.124Z,65.79
2022-09-16T10:23:04.073Z,65.89
2022-09-16T10:24:04.061Z,65.89
2022-09-16T10:25:04.052Z,65.89
2022-09-16T10:26:04.036Z,65.89
2022-09-16T10:27:04.195Z,65.89
2022-09-16T10:28:04.048Z,65.89
2022-09-16T10:29:04.006Z,65.89
2022-09-16T10:30:03.992Z,65.89
2022-09-16T10:31:04.033Z,65.89
2022-09-16T10:32:04.188Z,65.89
2022-09-16T10:33:03.995Z,65.89
2022-09-16T10:34:03.950Z,65.89
2022-09-16T10:35:03.941Z,65.89
2022-09-16T10:36:03.927Z,65.89
2022-09-16T10:37:03.924Z,65.89
2022-09-16T10:38:03.947Z,65.79
2022-09-16T10:39:05.363Z,65.69
2022-09-16T10:40:03.983Z,65.79
2022-09-16T10:41:03.874Z,65.89
2022-09-16T10:42:03.863Z,65.89
2022-09-16T10:43:03.992Z,65.89
2022-09-16T10:44:03.877Z,65.79
2022-09-16T10:45:03.831Z,65.79
2022-09-16T10:46:03.859Z,65.69
2022-09-16T10:47:03.807Z,65.49
2022-09-16T10:48:06.605Z,65.49
2022-09-16T10:49:03.822Z,65.59
2022-09-16T10:50:03.775Z,65.49
2022-09-16T10:51:03.765Z,65.49
2022-09-16T10:52:03.753Z,65.39
2022-09-16T10:53:03.752Z,65.29
2022-09-16T10:54:03.763Z,65.29
2022-09-16T10:55:03.727Z,65.19
2022-09-16T10:56:03.708Z,65.19
2022-09-16T10:57:03.702Z,65.19
2022-09-16T10:58:03.686Z,65.29
2022-09-16T10:59:03.872Z,65.19
2022-09-16T11:00:03.697Z,65.19
2022-09-16T11:01:03.871Z,65.19
2022-09-16T11:02:03.829Z,65.19
2022-09-16T11:03:03.633Z,65.29
2022-09-16T11:04:05.278Z,65.29
2022-09-16T11:05:03.643Z,65.29
2022-09-16T11:06:03.610Z,65.29
2022-09-16T11:07:03.591Z,65.19
2022-09-16T11:08:03.577Z,65.19
2022-09-16T11:09:03.565Z,65.29
2022-09-16T11:10:03.596Z,65.29
2022-09-16T11:11:03.545Z,65.19
2022-09-16T11:12:05.386Z,65.29
2022-09-16T11:13:03.538Z,65.29
2022-09-16T11:14:03.514Z,65.19
2022-09-16T11:15:03.633Z,65.09
2022-09-16T11:16:03.575Z,64.99
2022-09-16T11:17:03.480Z,64.99
2022-09-16T11:18:03.476Z,64.99
2022-09-16T11:19:03.460Z,64.89
2022-09-16T11:20:03.446Z,64.59
2022-09-16T11:21:03.438Z,64.39
2022-09-16T11:22:03.458Z,64.49
2022-09-16T11:23:03.415Z,64.39
2022-09-16T11:24:03.404Z,64.39
2022-09-16T11:25:03.396Z,64.39
2022-09-16T11:26:03.386Z,64.39
2022-09-16T11:27:03.405Z,64.49
2022-09-16T11:28:03.389Z,64.59
2022-09-16T11:29:03.350Z,64.49
2022-09-16T11:30:03.339Z,64.49
2022-09-16T11:31:03.560Z,64.49
2022-09-16T11:32:03.315Z,64.49
2022-09-16T11:33:03.819Z,64.49
2022-09-16T11:34:05.696Z,64.49
2022-09-16T11:35:03.285Z,64.49
2022-09-16T11:36:03.278Z,64.49
2022-09-16T11:37:03.261Z,64.49
2022-09-16T11:38:03.251Z,64.49
2022-09-16T11:39:03.273Z,64.49
2022-09-16T11:40:03.326Z,64.59
2022-09-16T11:41:03.219Z,64.49
2022-09-16T11:42:03.205Z,64.39
2022-09-16T11:43:03.229Z,64.39
2022-09-16T11:44:03.183Z,64.39
2022-09-16T11:45:03.174Z,64.39
2022-09-16T11:46:03.322Z,64.39
2022-09-16T11:47:03.292Z,64.39
2022-09-16T11:48:03.174Z,64.19
2022-09-16T11:49:03.166Z,64.29
2022-09-16T11:50:03.118Z,64.29
2022-09-16T11:51:03.112Z,64.39
2022-09-16T11:52:03.096Z,64.39
2022-09-16T11:53:05.319Z,64.29
2022-09-16T11:54:03.114Z,64.29
2022-09-16T11:55:03.064Z,64.29
2022-09-16T11:56:03.057Z,64.29
2022-09-16T11:57:03.044Z,64.19
2022-09-16T11:58:03.031Z,63.89
2022-09-16T11:59:03.023Z,63.79
2022-09-16T12:00:03.046Z,63.79
2022-09-16T12:01:03.004Z,63.79
2022-09-16T12:02:03.090Z,63.69
2022-09-16T12:03:03.176Z,63.79
2022-09-16T12:04:02.964Z,63.79
2022-09-16T12:05:02.995Z,63.79
2022-09-16T12:06:02.943Z,63.79
2022-09-16T12:07:02.933Z,63.79
2022-09-16T12:08:02.926Z,63.79
2022-09-16T12:09:04.554Z,63.89
2022-09-16T12:10:02.899Z,63.89
2022-09-16T12:11:02.924Z,63.69
2022-09-16T12:12:02.877Z,63.39
2022-09-16T12:13:02.867Z,63.49
2022-09-16T12:14:05.853Z,63.59
2022-09-16T12:15:05.725Z,63.49
2022-09-16T12:16:02.870Z,63.49
2022-09-16T12:17:02.857Z,63.49
2022-09-16T12:18:02.812Z,63.49
2022-09-16T12:19:02.937Z,63.49
2022-09-16T12:20:02.791Z,63.49
2022-09-16T12:21:02.786Z,63.49
2022-09-16T12:22:02.803Z,63.49
2022-09-16T12:23:02.796Z,63.59
2022-09-16T12:24:02.759Z,63.49
2022-09-16T12:25:02.740Z,63.39
2022-09-16T12:26:02.727Z,63.39
2022-09-16T12:27:02.718Z,63.39
2022-09-16T12:28:02.735Z,63.49
2022-09-16T12:29:02.696Z,63.49
2022-09-16T12:30:02.684Z,63.49
2022-09-16T12:31:02.702Z,63.39
2022-09-16T12:32:02.659Z,63.39
2022-09-16T12:33:02.684Z,63.49
2022-09-16T12:34:02.638Z,63.49
2022-09-16T12:35:02.777Z,63.49
2022-09-16T12:36:02.616Z,63.49
2022-09-16T12:37:02.606Z,63.49
2022-09-16T12:38:02.630Z,63.49
2022-09-16T12:39:02.617Z,63.39
2022-09-16T12:40:02.594Z,63.29
2022-09-16T12:41:02.605Z,63.19
2022-09-16T12:42:02.558Z,63.42
2022-09-16T12:43:02.676Z,63.49
2022-09-16T12:44:17.215Z,63.49
2022-09-16T12:45:03.583Z,63.49
2022-09-16T12:46:02.602Z,63.59
2022-09-16T12:47:02.494Z,63.59
2022-09-16T12:48:02.485Z,63.59
2022-09-16T12:49:02.526Z,63.69
2022-09-16T12:50:02.465Z,63.69
2022-09-16T12:51:02.587Z,63.69
2022-09-16T12:52:02.446Z,63.72